sensor_id;sensor_type;location;lat;lon;timestamp;P1;durP1;ratioP1;P2;durP2;ratioP2
67804;SDS011;54603;45.638;11.714;2022-09-17T00:01:28;1.10;;;0.70;;
67804;SDS011;54603;45.638;11.714;2022-09-17T00:04:00;1.80;;;0.60;;
67804;SDS011;54603;45.638;11.714;2022-09-17T00:06:33;1.20;;;0.70;;
67804;SDS011;54603;45.638;11.714;2022-09-17T00:09:01;1.60;;;0.70;;
67804;SDS011;54603;45.638;11.714;2022-09-17T00:11:32;1.10;;;0.90;;
67804;SDS011;54603;45.638;11.714;2022-09-17T00:14:04;2.70;;;0.70;;
67804;SDS011;54603;45.638;11.714;2022-09-17T00:18:58;1.30;;;0.80;;
67804;SDS011;54603;45.638;11.714;2022-09-17T00:21:24;1.70;;;0.90;;
67804;SDS011;54603;45.638;11.714;2022-09-17T00:23:57;2.60;;;0.80;;
67804;SDS011;54603;45.638;11.714;2022-09-17T00:26:25;1.70;;;0.80;;
67804;SDS011;54603;45.638;11.714;2022-09-17T00:28:52;1.00;;;0.80;;
67804;SDS011;54603;45.638;11.714;2022-09-17T00:31:21;1.40;;;0.80;;
67804;SDS011;54603;45.638;11.714;2022-09-17T00:34:09;0.80;;;0.70;;
67804;SDS011;54603;45.638;11.714;2022-09-17T00:36:38;1.40;;;0.80;;
67804;SDS011;54603;45.638;11.714;2022-09-17T00:39:10;1.70;;;0.90;;
67804;SDS011;54603;45.638;11.714;2022-09-17T00:41:36;1.00;;;0.80;;
67804;SDS011;54603;45.638;11.714;2022-09-17T00:47:12;1.50;;;0.80;;
67804;SDS011;54603;45.638;11.714;2022-09-17T00:49:41;1.30;;;0.90;;
67804;SDS011;54603;45.638;11.714;2022-09-17T00:52:21;2.50;;;0.70;;
67804;SDS011;54603;45.638;11.714;2022-09-17T00:57:43;0.90;;;0.70;;
67804;SDS011;54603;45.638;11.714;2022-09-17T01:00:10;1.10;;;0.70;;
67804;SDS011;54603;45.638;11.714;2022-09-17T01:02:42;0.90;;;0.80;;
67804;SDS011;54603;45.638;11.714;2022-09-17T01:05:10;1.60;;;0.60;;
67804;SDS011;54603;45.638;11.714;2022-09-17T01:07:43;0.90;;;0.70;;
67804;SDS011;54603;45.638;11.714;2022-09-17T01:10:17;1.10;;;0.80;;
67804;SDS011;54603;45.638;11.714;2022-09-17T01:13:16;0.90;;;0.70;;
67804;SDS011;54603;45.638;11.714;2022-09-17T01:21:47;0.90;;;0.70;;
67804;SDS011;54603;45.638;11.714;2022-09-17T01:30:38;1.20;;;0.70;;
67804;SDS011;54603;45.638;11.714;2022-09-17T01:44:59;1.00;;;0.70;;
67804;SDS011;54603;45.638;11.714;2022-09-17T01:48:04;1.30;;;0.60;;
67804;SDS011;54603;45.638;11.714;2022-09-17T01:50:41;0.70;;;0.70;;
67804;SDS011;54603;45.638;11.714;2022-09-17T01:56:13;0.90;;;0.60;;
67804;SDS011;54603;45.638;11.714;2022-09-17T01:58:42;0.90;;;0.70;;
67804;SDS011;54603;45.638;11.714;2022-09-17T02:01:12;1.60;;;0.70;;
67804;SDS011;54603;45.638;11.714;2022-09-17T02:03:41;2.00;;;0.60;;
67804;SDS011;54603;45.638;11.714;2022-09-17T02:06:12;1.50;;;0.70;;
67804;SDS011;54603;45.638;11.714;2022-09-17T02:08:44;0.70;;;0.70;;
67804;SDS011;54603;45.638;11.714;2022-09-17T02:11:21;0.70;;;0.70;;
67804;SDS011;54603;45.638;11.714;2022-09-17T02:13:58;1.70;;;0.70;;
67804;SDS011;54603;45.638;11.714;2022-09-17T02:16:27;0.70;;;0.60;;
67804;SDS011;54603;45.638;11.714;2022-09-17T02:29:25;0.50;;;0.50;;
67804;SDS011;54603;45.638;11.714;2022-09-17T02:32:03;0.90;;;0.70;;
67804;SDS011;54603;45.638;11.714;2022-09-17T02:34:29;0.70;;;0.60;;
67804;SDS011;54603;45.638;11.714;2022-09-17T02:37:13;1.40;;;0.60;;
67804;SDS011;54603;45.638;11.714;2022-09-17T02:39:38;0.60;;;0.60;;
67804;SDS011;54603;45.638;11.714;2022-09-17T02:42:12;0.90;;;0.70;;
67804;SDS011;54603;45.638;11.714;2022-09-17T02:45:05;0.60;;;0.60;;
67804;SDS011;54603;45.638;11.714;2022-09-17T02:58:50;1.50;;;0.60;;
67804;SDS011;54603;45.638;11.714;2022-09-17T03:01:24;0.90;;;0.70;;
67804;SDS011;54603;45.638;11.714;2022-09-17T03:04:14;1.20;;;0.70;;
67804;SDS011;54603;45.638;11.714;2022-09-17T03:07:07;0.50;;;0.50;;
67804;SDS011;54603;45.638;11.714;2022-09-17T03:09:34;0.60;;;0.60;;
67804;SDS011;54603;45.638;11.714;2022-09-17T03:12:00;0.80;;;0.60;;
67804;SDS011;54603;45.638;11.714;2022-09-17T03:14:26;0.60;;;0.60;;
67804;SDS011;54603;45.638;11.714;2022-09-17T03:16:52;1.60;;;0.60;;
67804;SDS011;54603;45.638;11.714;2022-09-17T03:19:26;0.50;;;0.50;;
67804;SDS011;54603;45.638;11.714;2022-09-17T03:22:12;0.70;;;0.60;;
67804;SDS011;54603;45.638;11.714;2022-09-17T03:24:51;0.60;;;0.60;;
67804;SDS011;54603;45.638;11.714;2022-09-17T03:27:16;1.80;;;0.70;;
67804;SDS011;54603;45.638;11.714;2022-09-17T03:29:42;0.60;;;0.60;;
67804;SDS011;54603;45.638;11.714;2022-09-17T03:32:09;0.50;;;0.50;;
67804;SDS011;54603;45.638;11.714;2022-09-17T03:34:37;0.80;;;0.60;;
67804;SDS011;54603;45.638;11.714;2022-09-17T03:37:05;0.60;;;0.60;;
67804;SDS011;54603;45.638;11.714;2022-09-17T03:39:43;0.50;;;0.50;;
67804;SDS011;54603;45.638;11.714;2022-09-17T03:42:09;0.60;;;0.50;;
67804;SDS011;54603;45.638;11.714;2022-09-17T03:44:34;0.50;;;0.50;;
67804;SDS011;54603;45.638;11.714;2022-09-17T03:47:00;0.90;;;0.50;;
67804;SDS011;54603;45.638;11.714;2022-09-17T03:49:36;0.50;;;0.50;;
67804;SDS011;54603;45.638;11.714;2022-09-17T03:52:01;0.70;;;0.60;;
67804;SDS011;54603;45.638;11.714;2022-09-17T03:55:07;0.60;;;0.60;;
67804;SDS011;54603;45.638;11.714;2022-09-17T03:57:33;0.90;;;0.70;;
67804;SDS011;54603;45.638;11.714;2022-09-17T03:59:59;0.70;;;0.60;;
67804;SDS011;54603;45.638;11.714;2022-09-17T04:02:25;1.30;;;0.50;;
67804;SDS011;54603;45.638;11.714;2022-09-17T04:04:50;0.60;;;0.60;;
67804;SDS011;54603;45.638;11.714;2022-09-17T04:07:17;0.60;;;0.50;;
67804;SDS011;54603;45.638;11.714;2022-09-17T04:09:43;0.50;;;0.50;;
67804;SDS011;54603;45.638;11.714;2022-09-17T04:12:08;0.50;;;0.50;;
67804;SDS011;54603;45.638;11.714;2022-09-17T04:14:36;0.50;;;0.50;;
67804;SDS011;54603;45.638;11.714;2022-09-17T04:17:18;0.50;;;0.50;;
67804;SDS011;54603;45.638;11.714;2022-09-17T04:20:03;0.90;;;0.50;;
67804;SDS011;54603;45.638;11.714;2022-09-17T04:22:43;1.50;;;0.60;;
67804;SDS011;54603;45.638;11.714;2022-09-17T04:25:09;0.50;;;0.50;;
67804;SDS011;54603;45.638;11.714;2022-09-17T04:27:35;1.60;;;0.50;;
67804;SDS011;54603;45.638;11.714;2022-09-17T04:30:01;0.70;;;0.60;;
67804;SDS011;54603;45.638;11.714;2022-09-17T04:32:27;0.50;;;0.50;;
67804;SDS011;54603;45.638;11.714;2022-09-17T04:34:53;0.80;;;0.50;;
67804;SDS011;54603;45.638;11.714;2022-09-17T04:37:23;2.90;;;0.60;;
67804;SDS011;54603;45.638;11.714;2022-09-17T04:39:51;0.50;;;0.50;;
67804;SDS011;54603;45.638;11.714;2022-09-17T04:42:17;0.50;;;0.50;;
67804;SDS011;54603;45.638;11.714;2022-09-17T04:44:43;1.10;;;0.50;;
67804;SDS011;54603;45.638;11.714;2022-09-17T04:47:09;1.20;;;0.60;;
67804;SDS011;54603;45.638;11.714;2022-09-17T04:49:35;1.00;;;0.50;;
67804;SDS011;54603;45.638;11.714;2022-09-17T04:52:00;0.50;;;0.50;;
67804;SDS011;54603;45.638;11.714;2022-09-17T04:54:26;0.50;;;0.50;;
67804;SDS011;54603;45.638;11.714;2022-09-17T04:56:52;0.50;;;0.50;;
67804;SDS011;54603;45.638;11.714;2022-09-17T04:59:18;0.50;;;0.50;;
67804;SDS011;54603;45.638;11.714;2022-09-17T05:01:44;0.60;;;0.50;;
67804;SDS011;54603;45.638;11.714;2022-09-17T05:04:09;2.20;;;0.60;;
67804;SDS011;54603;45.638;11.714;2022-09-17T05:06:35;0.50;;;0.50;;
67804;SDS011;54603;45.638;11.714;2022-09-17T05:09:01;0.60;;;0.60;;
67804;SDS011;54603;45.638;11.714;2022-09-17T05:11:26;0.50;;;0.50;;
67804;SDS011;54603;45.638;11.714;2022-09-17T05:13:53;2.10;;;0.60;;
67804;SDS011;54603;45.638;11.714;2022-09-17T05:16:19;0.90;;;0.60;;
67804;SDS011;54603;45.638;11.714;2022-09-17T05:18:45;0.50;;;0.50;;
67804;SDS011;54603;45.638;11.714;2022-09-17T05:21:10;0.50;;;0.50;;
67804;SDS011;54603;45.638;11.714;2022-09-17T05:23:36;0.70;;;0.60;;
67804;SDS011;54603;45.638;11.714;2022-09-17T05:26:02;0.50;;;0.50;;
67804;SDS011;54603;45.638;11.714;2022-09-17T05:28:29;2.20;;;0.60;;
67804;SDS011;54603;45.638;11.714;2022-09-17T05:30:57;0.40;;;0.40;;
67804;SDS011;54603;45.638;11.714;2022-09-17T05:33:23;0.60;;;0.60;;
67804;SDS011;54603;45.638;11.714;2022-09-17T05:35:51;0.80;;;0.50;;
67804;SDS011;54603;45.638;11.714;2022-09-17T05:38:36;0.60;;;0.50;;
67804;SDS011;54603;45.638;11.714;2022-09-17T05:41:39;1.10;;;0.50;;
67804;SDS011;54603;45.638;11.714;2022-09-17T05:44:23;0.60;;;0.60;;
67804;SDS011;54603;45.638;11.714;2022-09-17T05:46:51;0.40;;;0.40;;
67804;SDS011;54603;45.638;11.714;2022-09-17T05:49:18;0.90;;;0.50;;
67804;SDS011;54603;45.638;11.714;2022-09-17T05:52:03;0.50;;;0.40;;
67804;SDS011;54603;45.638;11.714;2022-09-17T05:54:29;0.70;;;0.50;;
67804;SDS011;54603;45.638;11.714;2022-09-17T05:56:55;1.00;;;0.50;;
67804;SDS011;54603;45.638;11.714;2022-09-17T05:59:22;0.50;;;0.50;;
67804;SDS011;54603;45.638;11.714;2022-09-17T06:01:48;0.80;;;0.50;;
67804;SDS011;54603;45.638;11.714;2022-09-17T06:04:15;0.50;;;0.50;;
67804;SDS011;54603;45.638;11.714;2022-09-17T06:06:44;0.50;;;0.50;;
67804;SDS011;54603;45.638;11.714;2022-09-17T06:09:09;1.50;;;0.60;;
67804;SDS011;54603;45.638;11.714;2022-09-17T06:11:55;0.40;;;0.40;;
67804;SDS011;54603;45.638;11.714;2022-09-17T06:14:20;0.90;;;0.50;;
67804;SDS011;54603;45.638;11.714;2022-09-17T06:16:46;0.50;;;0.50;;
67804;SDS011;54603;45.638;11.714;2022-09-17T06:19:11;0.50;;;0.50;;
67804;SDS011;54603;45.638;11.714;2022-09-17T06:21:37;0.60;;;0.50;;
67804;SDS011;54603;45.638;11.714;2022-09-17T06:24:02;0.60;;;0.60;;
67804;SDS011;54603;45.638;11.714;2022-09-17T06:26:30;0.50;;;0.50;;
67804;SDS011;54603;45.638;11.714;2022-09-17T06:28:57;0.80;;;0.60;;
67804;SDS011;54603;45.638;11.714;2022-09-17T06:31:41;0.80;;;0.50;;
67804;SDS011;54603;45.638;11.714;2022-09-17T06:34:10;0.50;;;0.50;;
67804;SDS011;54603;45.638;11.714;2022-09-17T06:36:36;0.60;;;0.50;;
67804;SDS011;54603;45.638;11.714;2022-09-17T06:39:02;0.40;;;0.40;;
67804;SDS011;54603;45.638;11.714;2022-09-17T06:41:27;0.50;;;0.50;;
67804;SDS011;54603;45.638;11.714;2022-09-17T06:43:53;0.60;;;0.50;;
67804;SDS011;54603;45.638;11.714;2022-09-17T06:46:23;0.50;;;0.50;;
67804;SDS011;54603;45.638;11.714;2022-09-17T06:48:49;0.50;;;0.50;;
67804;SDS011;54603;45.638;11.714;2022-09-17T06:51:14;0.60;;;0.60;;
67804;SDS011;54603;45.638;11.714;2022-09-17T06:53:40;0.40;;;0.40;;
67804;SDS011;54603;45.638;11.714;2022-09-17T06:56:07;0.60;;;0.50;;
67804;SDS011;54603;45.638;11.714;2022-09-17T06:58:33;0.50;;;0.50;;
67804;SDS011;54603;45.638;11.714;2022-09-17T07:01:06;0.80;;;0.50;;
67804;SDS011;54603;45.638;11.714;2022-09-17T07:03:32;0.40;;;0.40;;
67804;SDS011;54603;45.638;11.714;2022-09-17T07:05:58;0.50;;;0.50;;
67804;SDS011;54603;45.638;11.714;2022-09-17T07:08:23;0.50;;;0.50;;
67804;SDS011;54603;45.638;11.714;2022-09-17T07:10:50;0.80;;;0.50;;
67804;SDS011;54603;45.638;11.714;2022-09-17T07:13:20;0.80;;;0.50;;
67804;SDS011;54603;45.638;11.714;2022-09-17T07:16:06;0.50;;;0.50;;
67804;SDS011;54603;45.638;11.714;2022-09-17T07:18:31;0.60;;;0.50;;
67804;SDS011;54603;45.638;11.714;2022-09-17T07:20:58;1.20;;;0.50;;
67804;SDS011;54603;45.638;11.714;2022-09-17T07:23:27;0.40;;;0.40;;
67804;SDS011;54603;45.638;11.714;2022-09-17T07:25:58;0.50;;;0.50;;
67804;SDS011;54603;45.638;11.714;2022-09-17T07:28:31;0.50;;;0.50;;
67804;SDS011;54603;45.638;11.714;2022-09-17T07:30:57;0.70;;;0.60;;
67804;SDS011;54603;45.638;11.714;2022-09-17T07:33:43;0.70;;;0.50;;
67804;SDS011;54603;45.638;11.714;2022-09-17T07:36:10;0.50;;;0.50;;
67804;SDS011;54603;45.638;11.714;2022-09-17T07:38:36;0.60;;;0.50;;
67804;SDS011;54603;45.638;11.714;2022-09-17T07:41:06;0.60;;;0.50;;
67804;SDS011;54603;45.638;11.714;2022-09-17T07:43:37;1.30;;;0.60;;
67804;SDS011;54603;45.638;11.714;2022-09-17T07:46:12;1.90;;;0.60;;
67804;SDS011;54603;45.638;11.714;2022-09-17T07:48:43;0.40;;;0.40;;
67804;SDS011;54603;45.638;11.714;2022-09-17T07:51:17;0.70;;;0.60;;
67804;SDS011;54603;45.638;11.714;2022-09-17T07:53:43;0.90;;;0.60;;
67804;SDS011;54603;45.638;11.714;2022-09-17T07:56:30;1.40;;;0.50;;
67804;SDS011;54603;45.638;11.714;2022-09-17T07:58:55;1.10;;;0.50;;
67804;SDS011;54603;45.638;11.714;2022-09-17T08:01:21;1.10;;;0.50;;
67804;SDS011;54603;45.638;11.714;2022-09-17T08:03:50;0.80;;;0.60;;
67804;SDS011;54603;45.638;11.714;2022-09-17T08:06:24;5.60;;;0.50;;
67804;SDS011;54603;45.638;11.714;2022-09-17T08:09:15;0.60;;;0.50;;
67804;SDS011;54603;45.638;11.714;2022-09-17T08:11:42;0.70;;;0.60;;
67804;SDS011;54603;45.638;11.714;2022-09-17T08:14:09;0.80;;;0.60;;
67804;SDS011;54603;45.638;11.714;2022-09-17T08:16:43;1.30;;;0.60;;
67804;SDS011;54603;45.638;11.714;2022-09-17T08:19:33;0.70;;;0.70;;
67804;SDS011;54603;45.638;11.714;2022-09-17T08:22:42;0.60;;;0.60;;
67804;SDS011;54603;45.638;11.714;2022-09-17T08:25:08;0.70;;;0.50;;
67804;SDS011;54603;45.638;11.714;2022-09-17T08:27:35;1.00;;;0.60;;
67804;SDS011;54603;45.638;11.714;2022-09-17T08:30:05;1.80;;;0.70;;
67804;SDS011;54603;45.638;11.714;2022-09-17T08:32:54;1.60;;;0.50;;
67804;SDS011;54603;45.638;11.714;2022-09-17T08:35:41;0.70;;;0.60;;
67804;SDS011;54603;45.638;11.714;2022-09-17T08:38:07;3.30;;;0.60;;
67804;SDS011;54603;45.638;11.714;2022-09-17T08:41:01;1.70;;;0.70;;
67804;SDS011;54603;45.638;11.714;2022-09-17T08:46:37;3.50;;;0.70;;
67804;SDS011;54603;45.638;11.714;2022-09-17T08:51:47;2.10;;;0.70;;
67804;SDS011;54603;45.638;11.714;2022-09-17T08:57:32;2.10;;;0.70;;
67804;SDS011;54603;45.638;11.714;2022-09-17T09:00:12;1.20;;;0.60;;
67804;SDS011;54603;45.638;11.714;2022-09-17T09:05:47;0.60;;;0.60;;
67804;SDS011;54603;45.638;11.714;2022-09-17T09:08:25;1.10;;;0.70;;
67804;SDS011;54603;45.638;11.714;2022-09-17T09:11:17;1.20;;;0.50;;
67804;SDS011;54603;45.638;11.714;2022-09-17T09:13:48;5.80;;;0.80;;
67804;SDS011;54603;45.638;11.714;2022-09-17T09:16:21;1.10;;;0.80;;
67804;SDS011;54603;45.638;11.714;2022-09-17T09:19:24;2.70;;;0.80;;
67804;SDS011;54603;45.638;11.714;2022-09-17T09:24:35;1.70;;;0.80;;
67804;SDS011;54603;45.638;11.714;2022-09-17T09:27:16;2.90;;;0.70;;
67804;SDS011;54603;45.638;11.714;2022-09-17T09:32:31;1.00;;;0.80;;
67804;SDS011;54603;45.638;11.714;2022-09-17T09:35:02;1.10;;;0.60;;
67804;SDS011;54603;45.638;11.714;2022-09-17T09:38:09;3.40;;;0.70;;
67804;SDS011;54603;45.638;11.714;2022-09-17T09:40:42;0.70;;;0.60;;
67804;SDS011;54603;45.638;11.714;2022-09-17T09:44:02;1.80;;;0.60;;
67804;SDS011;54603;45.638;11.714;2022-09-17T09:53:03;2.00;;;0.60;;
67804;SDS011;54603;45.638;11.714;2022-09-17T10:01:02;1.70;;;0.60;;
67804;SDS011;54603;45.638;11.714;2022-09-17T10:03:53;1.40;;;0.70;;
67804;SDS011;54603;45.638;11.714;2022-09-17T10:06:22;1.30;;;0.70;;
67804;SDS011;54603;45.638;11.714;2022-09-17T10:09:11;1.60;;;0.80;;
67804;SDS011;54603;45.638;11.714;2022-09-17T10:11:37;0.50;;;0.50;;
67804;SDS011;54603;45.638;11.714;2022-09-17T10:16:45;1.10;;;0.80;;
67804;SDS011;54603;45.638;11.714;2022-09-17T10:20:49;0.80;;;0.70;;
67804;SDS011;54603;45.638;11.714;2022-09-17T10:22:48;1.10;;;0.80;;
67804;SDS011;54603;45.638;11.714;2022-09-17T10:25:22;2.30;;;0.60;;
67804;SDS011;54603;45.638;11.714;2022-09-17T10:30:55;1.10;;;0.70;;
67804;SDS011;54603;45.638;11.714;2022-09-17T10:33:27;1.30;;;0.70;;
67804;SDS011;54603;45.638;11.714;2022-09-17T10:35:59;1.60;;;0.60;;
67804;SDS011;54603;45.638;11.714;2022-09-17T10:41:23;0.90;;;0.60;;
67804;SDS011;54603;45.638;11.714;2022-09-17T10:43:49;1.20;;;0.80;;
67804;SDS011;54603;45.638;11.714;2022-09-17T10:46:29;1.90;;;0.80;;
67804;SDS011;54603;45.638;11.714;2022-09-17T10:49:05;2.50;;;0.70;;
67804;SDS011;54603;45.638;11.714;2022-09-17T10:52:54;1.90;;;0.70;;
67804;SDS011;54603;45.638;11.714;2022-09-17T10:58:01;1.10;;;0.80;;
67804;SDS011;54603;45.638;11.714;2022-09-17T11:00:41;0.80;;;0.80;;
67804;SDS011;54603;45.638;11.714;2022-09-17T11:06:23;1.20;;;0.90;;
67804;SDS011;54603;45.638;11.714;2022-09-17T11:20:55;0.80;;;0.70;;
67804;SDS011;54603;45.638;11.714;2022-09-17T11:27:07;1.20;;;0.60;;
67804;SDS011;54603;45.638;11.714;2022-09-17T11:33:23;2.50;;;0.80;;
67804;SDS011;54603;45.638;11.714;2022-09-17T11:36:16;0.80;;;0.60;;
67804;SDS011;54603;45.638;11.714;2022-09-17T11:38:50;1.20;;;0.70;;
67804;SDS011;54603;45.638;11.714;2022-09-17T11:41:20;2.10;;;0.70;;
67804;SDS011;54603;45.638;11.714;2022-09-17T11:44:29;0.90;;;0.70;;
67804;SDS011;54603;45.638;11.714;2022-09-17T11:47:19;0.70;;;0.50;;
67804;SDS011;54603;45.638;11.714;2022-09-17T11:56:19;2.30;;;0.60;;
67804;SDS011;54603;45.638;11.714;2022-09-17T11:59:01;0.70;;;0.60;;
67804;SDS011;54603;45.638;11.714;2022-09-17T12:01:49;0.70;;;0.70;;
67804;SDS011;54603;45.638;11.714;2022-09-17T12:13:43;1.20;;;0.60;;
67804;SDS011;54603;45.638;11.714;2022-09-17T12:16:43;1.30;;;0.70;;
67804;SDS011;54603;45.638;11.714;2022-09-17T12:19:12;2.20;;;0.80;;
67804;SDS011;54603;45.638;11.714;2022-09-17T12:21:41;0.70;;;0.50;;
67804;SDS011;54603;45.638;11.714;2022-09-17T12:24:11;0.80;;;0.70;;
67804;SDS011;54603;45.638;11.714;2022-09-17T12:40:13;3.50;;;0.70;;
67804;SDS011;54603;45.638;11.714;2022-09-17T12:48:08;2.90;;;0.70;;
67804;SDS011;54603;45.638;11.714;2022-09-17T12:50:49;0.80;;;0.70;;
67804;SDS011;54603;45.638;11.714;2022-09-17T12:53:29;0.70;;;0.60;;
67804;SDS011;54603;45.638;11.714;2022-09-17T12:58:55;1.10;;;0.60;;
67804;SDS011;54603;45.638;11.714;2022-09-17T13:01:34;5.60;;;0.70;;
67804;SDS011;54603;45.638;11.714;2022-09-17T13:07:20;0.80;;;0.70;;
67804;SDS011;54603;45.638;11.714;2022-09-17T13:15:19;2.60;;;1.10;;
67804;SDS011;54603;45.638;11.714;2022-09-17T13:22:50;2.30;;;0.80;;
67804;SDS011;54603;45.638;11.714;2022-09-17T13:25:18;4.20;;;0.80;;
67804;SDS011;54603;45.638;11.714;2022-09-17T13:27:44;4.00;;;1.00;;
67804;SDS011;54603;45.638;11.714;2022-09-17T13:30:11;1.80;;;0.80;;
67804;SDS011;54603;45.638;11.714;2022-09-17T13:37:30;2.60;;;0.80;;
67804;SDS011;54603;45.638;11.714;2022-09-17T13:40:04;5.20;;;1.30;;
67804;SDS011;54603;45.638;11.714;2022-09-17T13:42:46;2.10;;;1.00;;
67804;SDS011;54603;45.638;11.714;2022-09-17T13:45:15;4.70;;;1.40;;
67804;SDS011;54603;45.638;11.714;2022-09-17T13:50:26;5.50;;;0.90;;
67804;SDS011;54603;45.638;11.714;2022-09-17T13:52:55;2.10;;;0.80;;
67804;SDS011;54603;45.638;11.714;2022-09-17T13:55:29;4.10;;;1.00;;
67804;SDS011;54603;45.638;11.714;2022-09-17T13:57:59;9.90;;;1.20;;
67804;SDS011;54603;45.638;11.714;2022-09-17T14:24:34;1.60;;;0.80;;
67804;SDS011;54603;45.638;11.714;2022-09-17T14:35:36;2.80;;;0.90;;
67804;SDS011;54603;45.638;11.714;2022-09-17T14:40:46;0.70;;;0.60;;
67804;SDS011;54603;45.638;11.714;2022-09-17T14:43:20;2.60;;;0.70;;
67804;SDS011;54603;45.638;11.714;2022-09-17T14:45:53;1.60;;;0.60;;
67804;SDS011;54603;45.638;11.714;2022-09-17T14:56:32;1.30;;;0.80;;
67804;SDS011;54603;45.638;11.714;2022-09-17T14:58:59;1.70;;;0.70;;
67804;SDS011;54603;45.638;11.714;2022-09-17T15:01:29;0.80;;;0.80;;
67804;SDS011;54603;45.638;11.714;2022-09-17T15:06:41;1.70;;;0.70;;
67804;SDS011;54603;45.638;11.714;2022-09-17T15:09:14;1.30;;;0.70;;
67804;SDS011;54603;45.638;11.714;2022-09-17T15:11:41;1.00;;;0.70;;
67804;SDS011;54603;45.638;11.714;2022-09-17T15:14:11;0.70;;;0.70;;
67804;SDS011;54603;45.638;11.714;2022-09-17T15:16:45;1.10;;;0.70;;
67804;SDS011;54603;45.638;11.714;2022-09-17T15:19:26;1.50;;;0.70;;
67804;SDS011;54603;45.638;11.714;2022-09-17T15:24:36;2.60;;;0.80;;
67804;SDS011;54603;45.638;11.714;2022-09-17T15:27:13;1.30;;;0.60;;
67804;SDS011;54603;45.638;11.714;2022-09-17T15:29:46;1.80;;;0.70;;
67804;SDS011;54603;45.638;11.714;2022-09-17T15:32:13;1.60;;;0.90;;
67804;SDS011;54603;45.638;11.714;2022-09-17T15:34:40;0.60;;;0.60;;
67804;SDS011;54603;45.638;11.714;2022-09-17T15:37:18;1.10;;;0.70;;
67804;SDS011;54603;45.638;11.714;2022-09-17T15:39:47;1.00;;;0.70;;
67804;SDS011;54603;45.638;11.714;2022-09-17T15:42:21;1.60;;;0.90;;
67804;SDS011;54603;45.638;11.714;2022-09-17T15:44:50;3.20;;;1.00;;
67804;SDS011;54603;45.638;11.714;2022-09-17T15:47:47;1.50;;;0.80;;
67804;SDS011;54603;45.638;11.714;2022-09-17T15:50:21;1.60;;;0.70;;
67804;SDS011;54603;45.638;11.714;2022-09-17T15:52:48;2.60;;;0.80;;
67804;SDS011;54603;45.638;11.714;2022-09-17T15:55:27;1.60;;;0.80;;
67804;SDS011;54603;45.638;11.714;2022-09-17T15:57:55;0.90;;;0.80;;
67804;SDS011;54603;45.638;11.714;2022-09-17T16:00:23;1.50;;;0.80;;
67804;SDS011;54603;45.638;11.714;2022-09-17T16:02:49;1.30;;;0.80;;
67804;SDS011;54603;45.638;11.714;2022-09-17T16:07:44;2.80;;;0.60;;
67804;SDS011;54603;45.638;11.714;2022-09-17T16:10:10;5.80;;;0.80;;
67804;SDS011;54603;45.638;11.714;2022-09-17T16:12:37;1.00;;;0.80;;
67804;SDS011;54603;45.638;11.714;2022-09-17T16:15:02;1.90;;;0.80;;
67804;SDS011;54603;45.638;11.714;2022-09-17T16:20:05;0.80;;;0.70;;
67804;SDS011;54603;45.638;11.714;2022-09-17T16:22:46;1.10;;;0.70;;
67804;SDS011;54603;45.638;11.714;2022-09-17T16:25:15;0.90;;;0.70;;
67804;SDS011;54603;45.638;11.714;2022-09-17T16:27:44;5.80;;;0.90;;
67804;SDS011;54603;45.638;11.714;2022-09-17T16:30:15;2.00;;;0.70;;
67804;SDS011;54603;45.638;11.714;2022-09-17T16:32:42;1.30;;;0.80;;
67804;SDS011;54603;45.638;11.714;2022-09-17T16:35:10;2.00;;;0.80;;
67804;SDS011;54603;45.638;11.714;2022-09-17T16:37:36;1.30;;;0.80;;
67804;SDS011;54603;45.638;11.714;2022-09-17T16:40:02;2.30;;;1.00;;
67804;SDS011;54603;45.638;11.714;2022-09-17T16:42:31;4.10;;;0.80;;
67804;SDS011;54603;45.638;11.714;2022-09-17T16:44:56;5.20;;;0.70;;
67804;SDS011;54603;45.638;11.714;2022-09-17T16:47:24;5.50;;;0.90;;
67804;SDS011;54603;45.638;11.714;2022-09-17T16:49:49;5.70;;;0.90;;
67804;SDS011;54603;45.638;11.714;2022-09-17T16:52:15;7.20;;;1.00;;
67804;SDS011;54603;45.638;11.714;2022-09-17T16:54:40;4.30;;;1.30;;
67804;SDS011;54603;45.638;11.714;2022-09-17T16:57:06;3.10;;;0.90;;
67804;SDS011;54603;45.638;11.714;2022-09-17T16:59:31;4.60;;;0.90;;
67804;SDS011;54603;45.638;11.714;2022-09-17T17:01:57;3.20;;;0.90;;
67804;SDS011;54603;45.638;11.714;2022-09-17T17:04:22;2.40;;;0.80;;
67804;SDS011;54603;45.638;11.714;2022-09-17T17:06:48;1.30;;;0.80;;
67804;SDS011;54603;45.638;11.714;2022-09-17T17:09:14;0.80;;;0.70;;
67804;SDS011;54603;45.638;11.714;2022-09-17T17:11:39;3.00;;;0.70;;
67804;SDS011;54603;45.638;11.714;2022-09-17T17:14:05;3.10;;;0.90;;
67804;SDS011;54603;45.638;11.714;2022-09-17T17:16:31;5.00;;;0.90;;
67804;SDS011;54603;45.638;11.714;2022-09-17T17:18:56;4.00;;;1.00;;
67804;SDS011;54603;45.638;11.714;2022-09-17T17:21:22;1.10;;;0.80;;
67804;SDS011;54603;45.638;11.714;2022-09-17T17:23:48;1.10;;;0.70;;
67804;SDS011;54603;45.638;11.714;2022-09-17T17:26:14;2.90;;;1.00;;
67804;SDS011;54603;45.638;11.714;2022-09-17T17:28:40;2.60;;;0.70;;
67804;SDS011;54603;45.638;11.714;2022-09-17T17:31:05;1.30;;;0.90;;
67804;SDS011;54603;45.638;11.714;2022-09-17T17:33:31;3.40;;;0.70;;
67804;SDS011;54603;45.638;11.714;2022-09-17T17:36:01;2.20;;;0.90;;
67804;SDS011;54603;45.638;11.714;2022-09-17T17:38:27;2.50;;;0.80;;
67804;SDS011;54603;45.638;11.714;2022-09-17T17:43:31;10.40;;;1.20;;
67804;SDS011;54603;45.638;11.714;2022-09-17T17:45:56;2.90;;;0.90;;
67804;SDS011;54603;45.638;11.714;2022-09-17T17:48:22;1.60;;;0.90;;
67804;SDS011;54603;45.638;11.714;2022-09-17T17:50:47;1.40;;;0.90;;
67804;SDS011;54603;45.638;11.714;2022-09-17T17:53:13;1.40;;;0.80;;
67804;SDS011;54603;45.638;11.714;2022-09-17T17:55:38;2.10;;;0.90;;
67804;SDS011;54603;45.638;11.714;2022-09-17T17:58:04;1.20;;;0.80;;
67804;SDS011;54603;45.638;11.714;2022-09-17T18:00:29;1.60;;;0.90;;
67804;SDS011;54603;45.638;11.714;2022-09-17T18:02:55;3.10;;;2.20;;
67804;SDS011;54603;45.638;11.714;2022-09-17T18:05:20;5.30;;;3.30;;
67804;SDS011;54603;45.638;11.714;2022-09-17T18:07:46;2.70;;;2.00;;
67804;SDS011;54603;45.638;11.714;2022-09-17T18:10:12;5.50;;;3.20;;
67804;SDS011;54603;45.638;11.714;2022-09-17T18:12:37;6.20;;;3.40;;
67804;SDS011;54603;45.638;11.714;2022-09-17T18:15:04;8.40;;;3.40;;
67804;SDS011;54603;45.638;11.714;2022-09-17T18:17:30;6.30;;;3.80;;
67804;SDS011;54603;45.638;11.714;2022-09-17T18:19:56;12.60;;;6.10;;
67804;SDS011;54603;45.638;11.714;2022-09-17T18:22:22;5.00;;;3.20;;
67804;SDS011;54603;45.638;11.714;2022-09-17T18:24:48;7.00;;;3.90;;
67804;SDS011;54603;45.638;11.714;2022-09-17T18:27:13;8.60;;;4.90;;
67804;SDS011;54603;45.638;11.714;2022-09-17T18:29:39;9.60;;;5.40;;
67804;SDS011;54603;45.638;11.714;2022-09-17T18:32:05;11.20;;;6.20;;
67804;SDS011;54603;45.638;11.714;2022-09-17T18:34:30;11.20;;;6.00;;
67804;SDS011;54603;45.638;11.714;2022-09-17T18:36:56;12.40;;;5.90;;
67804;SDS011;54603;45.638;11.714;2022-09-17T18:39:22;9.70;;;6.10;;
67804;SDS011;54603;45.638;11.714;2022-09-17T18:41:47;10.70;;;6.10;;
67804;SDS011;54603;45.638;11.714;2022-09-17T18:44:13;14.90;;;7.60;;
67804;SDS011;54603;45.638;11.714;2022-09-17T18:46:38;10.10;;;5.60;;
67804;SDS011;54603;45.638;11.714;2022-09-17T18:49:06;10.10;;;5.80;;
67804;SDS011;54603;45.638;11.714;2022-09-17T18:51:32;7.50;;;5.00;;
67804;SDS011;54603;45.638;11.714;2022-09-17T18:53:58;9.30;;;5.80;;
67804;SDS011;54603;45.638;11.714;2022-09-17T18:56:25;11.50;;;5.60;;